createdAt,value
2019-03-02T19:06:35.195Z,18.03
2019-03-02T19:09:09.882Z,17.03
2019-03-02T19:11:43.400Z,18.27
2019-03-02T19:14:20.929Z,19.17
2019-03-02T19:16:52.365Z,19.40
2019-03-02T19:19:25.893Z,18.47
2019-03-02T19:21:59.420Z,19.37
2019-03-02T19:24:32.912Z,19.33
2019-03-02T19:27:06.492Z,19.90
2019-03-02T19:29:39.851Z,20.83
2019-03-02T19:32:13.312Z,20.73
2019-03-02T19:34:46.761Z,21.87
2019-03-02T19:37:20.281Z,21.27
2019-03-02T19:39:53.647Z,20.20
2019-03-02T19:42:27.458Z,22.40
2019-03-02T19:45:00.907Z,23.20
2019-03-02T19:47:34.478Z,22.87
2019-03-02T19:50:13.120Z,21.67
2019-03-02T19:52:46.886Z,22.60
2019-03-02T19:55:20.564Z,23.67
2019-03-02T19:57:54.007Z,22.67
2019-03-02T20:00:30.420Z,24.47
2019-03-02T20:03:03.972Z,24.53
2019-03-02T20:05:37.470Z,23.30
2019-03-02T20:08:10.945Z,24.40
2019-03-02T20:10:44.792Z,23.50
2019-03-02T20:13:21.609Z,24.23
2019-03-02T20:15:55.148Z,24.40
2019-03-02T20:18:28.572Z,25.13
2019-03-02T20:21:01.963Z,24.27
2019-03-02T20:23:37.428Z,23.97
2019-03-02T20:26:10.552Z,24.87
2019-03-02T20:28:43.887Z,24.63
2019-03-02T20:31:17.288Z,25.70
2019-03-02T20:33:50.723Z,25.07
2019-03-02T20:36:24.082Z,24.80
2019-03-02T20:38:57.476Z,24.43
2019-03-02T20:41:31.121Z,25.07
2019-03-02T20:44:04.673Z,24.77
2019-03-02T20:46:38.074Z,24.80
2019-03-02T20:49:11.505Z,24.47
2019-03-02T20:51:44.974Z,23.63
2019-03-02T20:54:18.398Z,25.03
2019-03-02T20:56:51.839Z,24.70
2019-03-02T20:59:25.258Z,24.23
2019-03-02T21:01:58.653Z,24.30
2019-03-02T21:04:32.053Z,23.10
2019-03-02T21:07:05.518Z,24.27
2019-03-02T21:09:40.685Z,25.67
2019-03-02T21:12:14.296Z,22.93
2019-03-02T21:14:47.720Z,23.93
2019-03-02T21:17:21.190Z,23.53
2019-03-02T21:19:55.024Z,23.80
2019-03-02T21:22:28.554Z,23.53
2019-03-02T21:25:01.948Z,23.57
2019-03-02T21:27:35.418Z,25.00
2019-03-02T21:30:11.903Z,23.00
2019-03-02T21:32:46.128Z,23.47
2019-03-02T21:35:19.762Z,24.63
2019-03-02T21:37:53.296Z,23.27
2019-03-02T21:40:29.232Z,22.77
2019-03-02T21:43:02.616Z,23.20
2019-03-02T21:45:36.489Z,23.57
2019-03-02T21:48:09.917Z,22.90
2019-03-02T21:50:46.502Z,22.37
2019-03-02T21:53:19.890Z,22.50
2019-03-02T21:55:53.357Z,22.40
2019-03-02T21:58:26.789Z,21.77
2019-03-02T22:01:00.183Z,21.23
2019-03-02T22:03:33.618Z,21.37
2019-03-02T22:06:07.040Z,21.43
2019-03-02T22:08:40.800Z,20.87
2019-03-02T22:11:15.782Z,21.03
2019-03-02T22:13:49.240Z,22.30
2019-03-02T22:16:22.776Z,20.87
2019-03-02T22:18:56.230Z,22.00
2019-03-02T22:21:29.671Z,22.60
2019-03-02T22:24:03.067Z,22.03
2019-03-02T22:26:36.538Z,21.80
2019-03-02T22:29:09.971Z,22.13
2019-03-02T22:31:43.401Z,21.93
2019-03-02T22:34:16.798Z,22.47
2019-03-02T22:36:50.357Z,22.17
2019-03-02T22:39:23.778Z,20.77
2019-03-02T22:41:57.144Z,23.43
2019-03-02T22:44:30.478Z,21.40
2019-03-02T22:47:04.019Z,21.77
2019-03-02T22:49:37.377Z,21.43
2019-03-02T22:52:10.797Z,22.37
2019-03-02T22:54:44.334Z,22.40
2019-03-02T22:57:17.870Z,21.50
2019-03-02T22:59:59.934Z,22.60
2019-03-02T23:02:32.255Z,21.73
2019-03-02T23:05:05.699Z,24.23
2019-03-02T23:07:39.279Z,23.13
2019-03-02T23:10:12.742Z,25.47
2019-03-02T23:12:46.227Z,25.53
2019-03-02T23:15:21.776Z,25.53
2019-03-02T23:17:55.206Z,27.03
2019-03-02T23:20:28.680Z,26.33
2019-03-02T23:23:02.269Z,25.47
2019-03-02T23:25:35.614Z,25.50
2019-03-02T23:28:09.028Z,25.83
2019-03-02T23:30:42.509Z,25.97
2019-03-02T23:33:16.299Z,28.13
2019-03-02T23:35:49.689Z,26.30
2019-03-02T23:38:23.192Z,26.70
2019-03-02T23:40:57.384Z,27.50
2019-03-02T23:43:30.823Z,28.20
2019-03-02T23:46:04.237Z,26.97
2019-03-02T23:48:37.660Z,27.43
2019-03-02T23:51:11.066Z,27.60
2019-03-02T23:53:44.516Z,30.80
2019-03-02T23:56:18.142Z,27.33
2019-03-02T23:58:51.650Z,27.10
